createdAt,value
2018-11-07T00:01:53.817Z,5.67
2018-11-07T00:04:22.355Z,6.03
2018-11-07T00:06:50.714Z,6.30
2018-11-07T00:09:19.018Z,5.93
2018-11-07T00:11:47.325Z,5.80
2018-11-07T00:14:15.657Z,5.20
2018-11-07T00:16:43.945Z,5.70
2018-11-07T00:19:12.603Z,5.40
2018-11-07T00:21:40.937Z,4.57
2018-11-07T00:24:09.281Z,5.43
2018-11-07T00:26:37.661Z,5.30
2018-11-07T00:29:06.216Z,5.10
2018-11-07T00:31:35.357Z,4.83
2018-11-07T00:34:03.737Z,4.90
2018-11-07T00:36:32.217Z,5.20
2018-11-07T00:39:00.577Z,5.40
2018-11-07T00:41:29.053Z,5.17
2018-11-07T00:43:57.387Z,4.80
2018-11-07T00:46:25.719Z,5.60
2018-11-07T00:48:54.114Z,5.40
2018-11-07T00:51:22.505Z,5.40
2018-11-07T00:53:50.849Z,4.43
2018-11-07T00:56:19.233Z,5.13
2018-11-07T00:58:47.629Z,4.50
2018-11-07T01:01:16.517Z,4.30
2018-11-07T01:03:44.869Z,4.07
2018-11-07T01:06:13.417Z,3.60
2018-11-07T01:08:41.729Z,3.57
2018-11-07T01:11:10.121Z,3.90
2018-11-07T01:13:38.489Z,3.57
2018-11-07T01:16:08.382Z,3.70
2018-11-07T01:18:37.118Z,3.27
2018-11-07T01:21:05.926Z,3.73
2018-11-07T01:23:34.533Z,3.57
2018-11-07T01:26:02.797Z,3.50
2018-11-07T01:28:31.241Z,3.33
2018-11-07T01:30:59.595Z,3.30
2018-11-07T01:33:27.871Z,3.40
2018-11-07T01:35:56.281Z,3.13
2018-11-07T01:38:24.733Z,3.13
2018-11-07T01:40:53.130Z,3.20
2018-11-07T01:43:21.430Z,3.13
2018-11-07T01:45:49.797Z,3.30
2018-11-07T01:48:18.550Z,3.73
2018-11-07T01:50:47.009Z,3.37
2018-11-07T01:53:15.318Z,3.03
2018-11-07T01:55:43.801Z,3.60
2018-11-07T01:58:12.102Z,3.63
2018-11-07T02:00:40.441Z,3.70
2018-11-07T02:03:08.753Z,3.50
2018-11-07T02:05:37.543Z,3.10
2018-11-07T02:08:06.751Z,3.13
2018-11-07T02:10:35.047Z,3.63
2018-11-07T02:13:03.464Z,3.63
2018-11-07T02:15:31.843Z,3.47
2018-11-07T02:18:00.216Z,3.40
2018-11-07T02:20:29.398Z,3.30
2018-11-07T02:22:57.689Z,3.50
2018-11-07T02:25:26.052Z,3.77
2018-11-07T02:27:55.239Z,3.50
2018-11-07T02:30:23.558Z,3.83
2018-11-07T02:32:51.915Z,3.17
2018-11-07T02:35:20.315Z,3.30
2018-11-07T02:37:48.779Z,3.40
2018-11-07T02:40:17.191Z,3.27
2018-11-07T02:42:46.069Z,3.20
2018-11-07T02:45:14.437Z,3.23
2018-11-07T02:47:42.921Z,3.23
2018-11-07T02:50:12.179Z,3.20
2018-11-07T02:52:40.836Z,3.30
2018-11-07T02:55:09.441Z,3.20
2018-11-07T02:57:38.177Z,3.57
2018-11-07T03:00:09.755Z,3.60
2018-11-07T03:02:38.141Z,3.30
2018-11-07T03:05:06.497Z,3.33
2018-11-07T03:07:34.875Z,3.33
2018-11-07T03:10:03.314Z,2.90
2018-11-07T03:12:31.636Z,3.77
2018-11-07T03:14:59.921Z,3.20
2018-11-07T03:17:28.207Z,3.50
2018-11-07T03:19:56.581Z,3.20
2018-11-07T03:22:24.861Z,3.40
2018-11-07T03:24:53.164Z,3.73
2018-11-07T03:27:21.501Z,3.30
2018-11-07T03:29:49.963Z,3.30
2018-11-07T03:32:18.833Z,3.30
2018-11-07T03:34:47.278Z,3.10
2018-11-07T03:37:15.610Z,3.30
2018-11-07T03:39:44.157Z,3.20
2018-11-07T03:42:12.524Z,2.80
2018-11-07T03:44:40.838Z,3.10
2018-11-07T03:47:09.154Z,2.77
2018-11-07T03:49:37.542Z,3.00
2018-11-07T03:52:05.907Z,3.17
2018-11-07T03:54:51.338Z,3.27
2018-11-07T03:57:19.681Z,3.23
2018-11-07T03:59:48.064Z,3.03
2018-11-07T04:02:16.471Z,3.60
2018-11-07T04:04:44.922Z,4.50
2018-11-07T04:07:13.258Z,4.57
2018-11-07T04:09:41.626Z,4.10
2018-11-07T04:12:11.146Z,4.00
2018-11-07T04:14:39.614Z,4.03
2018-11-07T04:17:08.294Z,3.90
2018-11-07T04:19:36.681Z,3.43
2018-11-07T04:22:05.130Z,3.90
2018-11-07T04:24:33.455Z,4.17
2018-11-07T04:27:01.922Z,3.83
2018-11-07T04:29:30.400Z,4.40
2018-11-07T04:31:58.986Z,3.80
2018-11-07T04:34:27.349Z,3.60
2018-11-07T04:36:55.641Z,3.50
2018-11-07T04:39:24.134Z,3.53
2018-11-07T04:41:52.689Z,3.43
2018-11-07T04:44:21.639Z,3.77
2018-11-07T04:46:50.671Z,4.10
2018-11-07T04:49:18.939Z,4.00
2018-11-07T04:51:47.386Z,3.87
2018-11-07T04:54:16.614Z,3.90
2018-11-07T04:56:44.876Z,3.87
2018-11-07T04:59:13.157Z,3.90
2018-11-07T05:01:41.469Z,3.90
2018-11-07T05:04:09.849Z,3.57
2018-11-07T05:06:38.213Z,3.73
2018-11-07T05:09:08.042Z,4.30
2018-11-07T05:11:36.401Z,4.40
2018-11-07T05:14:05.123Z,4.57
2018-11-07T05:16:33.902Z,4.00
2018-11-07T05:19:02.260Z,4.70
2018-11-07T05:21:30.629Z,3.83
2018-11-07T05:23:59.056Z,3.97
2018-11-07T05:26:28.194Z,3.73
2018-11-07T05:28:56.456Z,4.10
2018-11-07T05:31:25.077Z,4.33
2018-11-07T05:33:53.583Z,4.43
2018-11-07T05:36:22.540Z,4.00
2018-11-07T05:38:50.944Z,4.50
2018-11-07T05:41:19.865Z,4.13
2018-11-07T05:43:48.292Z,4.50
2018-11-07T05:46:16.691Z,5.17
2018-11-07T05:48:45.657Z,6.03
2018-11-07T05:51:14.051Z,6.20
2018-11-07T05:53:42.750Z,5.73
2018-11-07T05:56:11.229Z,6.33
2018-11-07T05:58:39.594Z,4.90
2018-11-07T06:01:08.220Z,6.50
2018-11-07T06:03:36.509Z,6.27
2018-11-07T06:06:05.343Z,5.43
2018-11-07T06:08:33.846Z,5.60
2018-11-07T06:11:02.281Z,5.17
2018-11-07T06:13:30.585Z,3.90
2018-11-07T06:15:59.276Z,4.23
2018-11-07T06:18:27.657Z,4.87
2018-11-07T06:20:55.962Z,5.23
2018-11-07T06:23:24.339Z,6.07
2018-11-07T06:25:52.694Z,6.13
2018-11-07T06:28:20.983Z,6.53
2018-11-07T06:30:49.541Z,5.87
2018-11-07T06:33:17.835Z,5.03
2018-11-07T06:35:46.267Z,5.03
2018-11-07T06:38:14.781Z,4.87
2018-11-07T06:40:43.066Z,5.47
2018-11-07T06:43:11.459Z,6.03
2018-11-07T06:45:40.037Z,5.00
2018-11-07T06:48:08.307Z,4.67
2018-11-07T06:50:36.587Z,6.90
2018-11-07T06:53:05.261Z,5.87
2018-11-07T06:55:33.568Z,6.43
2018-11-07T06:58:01.850Z,5.90
2018-11-07T07:00:33.783Z,7.13
2018-11-07T07:03:03.299Z,6.60
2018-11-07T07:05:32.149Z,6.97
2018-11-07T07:08:00.753Z,9.93
2018-11-07T07:10:29.198Z,11.63
2018-11-07T07:12:57.497Z,10.40
2018-11-07T07:15:26.074Z,6.90
2018-11-07T07:17:54.373Z,9.97
2018-11-07T07:20:22.668Z,10.17
2018-11-07T07:22:51.062Z,10.90
2018-11-07T07:25:19.410Z,8.43
2018-11-07T07:27:48.122Z,8.03
2018-11-07T07:30:18.006Z,6.97
2018-11-07T07:32:46.860Z,12.20
2018-11-07T07:35:15.746Z,14.27
2018-11-07T07:37:44.178Z,19.90
2018-11-07T07:40:13.562Z,15.40
2018-11-07T07:42:43.704Z,12.00
2018-11-07T07:45:14.866Z,11.87
2018-11-07T07:47:43.936Z,13.87
2018-11-07T07:50:13.448Z,10.70
2018-11-07T07:52:42.612Z,14.40
2018-11-07T07:55:11.783Z,12.07
2018-11-07T07:57:40.843Z,9.43
2018-11-07T08:00:13.663Z,7.93
2018-11-07T08:02:45.278Z,8.63
2018-11-07T08:05:14.162Z,9.90
2018-11-07T08:07:43.146Z,7.83
2018-11-07T08:10:13.118Z,7.63
2018-11-07T08:12:42.076Z,8.40
2018-11-07T08:15:11.240Z,8.70
2018-11-07T08:17:40.513Z,8.20
2018-11-07T08:20:10.780Z,7.77
2018-11-07T08:22:39.108Z,8.47
2018-11-07T08:25:08.355Z,11.10
2018-11-07T08:27:36.707Z,17.77
2018-11-07T08:30:06.714Z,16.77
2018-11-07T08:32:35.462Z,12.67
2018-11-07T08:35:03.758Z,8.87
2018-11-07T08:37:32.090Z,15.40
2018-11-07T08:40:00.435Z,25.23
2018-11-07T08:42:28.828Z,7.90
2018-11-07T08:44:57.040Z,8.87
2018-11-07T08:47:25.360Z,10.00
2018-11-07T08:49:53.679Z,8.23
2018-11-07T08:52:21.995Z,8.57
2018-11-07T08:54:50.345Z,8.83
2018-11-07T08:57:18.670Z,8.43
2018-11-07T08:59:47.099Z,8.27
2018-11-07T09:02:15.443Z,8.53
2018-11-07T09:04:43.698Z,9.07
2018-11-07T09:07:12.070Z,8.70
2018-11-07T09:09:40.363Z,8.03
2018-11-07T09:12:08.917Z,8.60
2018-11-07T09:14:37.246Z,7.27
2018-11-07T09:17:06.251Z,8.43
2018-11-07T09:19:35.022Z,8.67
2018-11-07T09:22:03.319Z,8.67
2018-11-07T09:24:31.835Z,8.10
2018-11-07T09:27:00.165Z,7.80
2018-11-07T09:29:28.563Z,8.30
2018-11-07T09:31:56.843Z,8.30
2018-11-07T09:34:25.141Z,7.67
2018-11-07T09:36:53.454Z,8.33
2018-11-07T09:39:21.842Z,8.63
2018-11-07T09:41:50.319Z,7.23
2018-11-07T09:44:18.745Z,7.70
2018-11-07T09:46:47.070Z,7.50
2018-11-07T09:49:16.060Z,7.70
2018-11-07T09:51:44.486Z,7.63
2018-11-07T09:54:12.781Z,7.50
2018-11-07T09:56:41.057Z,10.50
2018-11-07T09:59:09.484Z,8.97
2018-11-07T10:01:37.862Z,8.03
2018-11-07T10:04:06.229Z,8.17
2018-11-07T10:06:34.597Z,7.70
2018-11-07T10:09:02.851Z,7.17
2018-11-07T10:11:31.181Z,7.13
2018-11-07T10:13:59.579Z,7.73
2018-11-07T10:16:27.908Z,6.70
2018-11-07T10:18:56.299Z,6.67
2018-11-07T10:21:24.706Z,6.13
2018-11-07T10:23:53.054Z,6.43
2018-11-07T10:26:21.429Z,6.70
2018-11-07T10:28:50.079Z,6.47
2018-11-07T10:31:18.199Z,6.30
2018-11-07T10:33:46.466Z,6.00
2018-11-07T10:36:14.887Z,5.97
2018-11-07T10:38:43.351Z,5.80
2018-11-07T10:41:11.482Z,5.77
2018-11-07T10:43:39.856Z,5.67
2018-11-07T10:46:08.209Z,5.87
2018-11-07T10:48:36.441Z,5.60
2018-11-07T10:51:04.846Z,6.07
2018-11-07T10:53:33.190Z,6.60
2018-11-07T10:56:01.501Z,6.13
2018-11-07T10:58:30.151Z,6.10
2018-11-07T11:01:03.839Z,6.20
2018-11-07T11:03:32.828Z,5.63
2018-11-07T11:06:01.120Z,6.83
2018-11-07T11:08:29.426Z,7.60
2018-11-07T11:10:58.094Z,16.00
2018-11-07T11:13:26.702Z,24.37
2018-11-07T11:15:55.111Z,16.27
2018-11-07T11:18:23.842Z,14.07
2018-11-07T11:20:52.201Z,15.37
2018-11-07T11:23:20.578Z,8.83
2018-11-07T11:25:49.055Z,8.07
2018-11-07T11:28:17.302Z,9.90
2018-11-07T11:30:45.644Z,10.63
2018-11-07T11:33:13.930Z,6.20
2018-11-07T11:35:42.258Z,5.13
2018-11-07T11:38:10.558Z,5.70
2018-11-07T11:40:39.057Z,5.80
2018-11-07T11:43:07.411Z,5.93
2018-11-07T11:45:35.858Z,6.80
2018-11-07T11:48:04.234Z,9.27
2018-11-07T11:50:32.642Z,7.10
2018-11-07T11:53:01.020Z,7.57
2018-11-07T11:55:29.445Z,7.87
2018-11-07T11:57:58.406Z,8.10
2018-11-07T12:00:26.821Z,7.40
2018-11-07T12:02:55.262Z,7.00
2018-11-07T12:05:23.947Z,6.80
2018-11-07T12:07:52.318Z,6.90
2018-11-07T12:10:22.914Z,10.33
2018-11-07T12:12:52.538Z,8.23
2018-11-07T12:15:22.203Z,6.73
2018-11-07T12:17:51.557Z,6.50
2018-11-07T12:20:19.979Z,7.37
2018-11-07T12:22:48.330Z,6.73
2018-11-07T12:25:17.782Z,6.60
2018-11-07T12:27:46.139Z,6.67
2018-11-07T12:30:16.683Z,6.97
2018-11-07T12:32:46.230Z,6.80
2018-11-07T12:35:15.210Z,6.40
2018-11-07T12:37:43.582Z,6.00
2018-11-07T12:40:12.728Z,6.10
2018-11-07T12:42:41.138Z,12.30
2018-11-07T12:45:11.447Z,8.70
2018-11-07T12:47:40.030Z,11.27
2018-11-07T12:50:10.636Z,19.67
2018-11-07T12:52:38.967Z,12.67
2018-11-07T12:55:08.672Z,9.60
2018-11-07T12:57:37.373Z,7.30
2018-11-07T13:00:08.316Z,9.07
2018-11-07T13:02:36.744Z,6.63
2018-11-07T13:05:06.067Z,7.43
2018-11-07T13:07:34.465Z,7.20
2018-11-07T13:10:02.928Z,6.30
2018-11-07T13:12:31.247Z,6.80
2018-11-07T13:14:59.867Z,6.67
2018-11-07T13:17:28.325Z,7.10
2018-11-07T13:19:56.798Z,7.10
2018-11-07T13:22:25.212Z,6.77
2018-11-07T13:24:53.493Z,9.63
2018-11-07T13:27:21.825Z,7.93
2018-11-07T13:29:50.202Z,8.03
2018-11-07T13:32:18.799Z,12.00
2018-11-07T13:34:47.180Z,7.50
2018-11-07T13:37:15.805Z,13.10
2018-11-07T13:39:43.949Z,8.10
2018-11-07T13:42:13.115Z,8.97
2018-11-07T13:44:41.519Z,11.50
2018-11-07T13:47:09.917Z,19.40
2018-11-07T13:49:38.795Z,28.00
2018-11-07T13:52:07.333Z,12.80
2018-11-07T13:54:35.685Z,9.57
2018-11-07T13:57:04.035Z,8.83
2018-11-07T13:59:32.463Z,7.53
2018-11-07T14:02:00.793Z,22.90
2018-11-07T14:04:29.145Z,12.63
2018-11-07T14:06:57.583Z,9.80
2018-11-07T14:09:26.213Z,9.20
2018-11-07T14:11:54.975Z,15.93
2018-11-07T14:14:23.414Z,10.40
2018-11-07T14:16:51.965Z,19.87
2018-11-07T14:19:20.909Z,14.33
2018-11-07T14:21:49.262Z,12.40
2018-11-07T14:24:17.624Z,8.90
2018-11-07T14:26:46.069Z,10.37
2018-11-07T14:29:15.646Z,16.47
2018-11-07T14:31:44.100Z,10.37
2018-11-07T14:34:12.840Z,9.23
2018-11-07T14:36:41.162Z,8.57
2018-11-07T14:39:10.693Z,9.87
2018-11-07T14:41:39.137Z,9.63
2018-11-07T14:44:08.157Z,9.90
2018-11-07T14:46:36.554Z,9.70
2018-11-07T14:49:05.101Z,9.73
2018-11-07T14:51:33.425Z,9.97
2018-11-07T14:54:01.825Z,9.10
2018-11-07T14:56:30.715Z,9.20
2018-11-07T14:58:59.105Z,9.40
2018-11-07T15:01:27.667Z,9.03
2018-11-07T15:03:55.947Z,9.67
2018-11-07T15:06:24.271Z,10.10
2018-11-07T15:08:52.714Z,10.67
2018-11-07T15:11:21.045Z,10.80
2018-11-07T15:13:49.387Z,9.27
2018-11-07T15:16:17.684Z,8.93
2018-11-07T15:18:46.043Z,9.10
2018-11-07T15:21:14.365Z,8.93
2018-11-07T15:23:42.730Z,9.37
2018-11-07T15:26:11.053Z,7.33
2018-11-07T15:28:39.344Z,5.87
2018-11-07T15:31:07.718Z,5.90
2018-11-07T15:33:36.090Z,5.53
2018-11-07T15:36:04.566Z,6.67
2018-11-07T15:38:32.817Z,8.43
2018-11-07T15:41:01.124Z,7.93
2018-11-07T15:43:29.969Z,7.13
2018-11-07T15:45:58.199Z,6.70
2018-11-07T15:48:26.541Z,7.73
2018-11-07T15:51:00.615Z,7.03
2018-11-07T15:53:29.061Z,5.27
2018-11-07T15:55:57.358Z,5.10
2018-11-07T15:58:25.763Z,5.30
2018-11-07T16:00:54.095Z,5.30
2018-11-07T16:03:27.827Z,4.83
2018-11-07T16:05:56.210Z,5.27
2018-11-07T16:08:24.489Z,5.47
2018-11-07T16:10:52.823Z,4.77
2018-11-07T16:13:21.276Z,4.60
2018-11-07T16:15:49.617Z,4.73
2018-11-07T16:18:17.966Z,4.73
2018-11-07T16:20:46.420Z,5.27
2018-11-07T16:23:15.166Z,6.07
2018-11-07T16:25:43.564Z,5.50
2018-11-07T16:28:11.901Z,5.80
2018-11-07T16:30:40.897Z,5.83
2018-11-07T16:33:09.487Z,5.70
2018-11-07T16:35:37.834Z,5.17
2018-11-07T16:38:06.244Z,5.20
2018-11-07T16:40:34.817Z,5.73
2018-11-07T16:43:03.181Z,5.10
2018-11-07T16:45:31.461Z,5.47
2018-11-07T16:48:00.047Z,4.80
2018-11-07T16:50:28.339Z,5.17
2018-11-07T16:52:56.712Z,5.20
2018-11-07T16:55:25.832Z,5.13
2018-11-07T16:57:54.134Z,12.00
2018-11-07T17:00:22.467Z,6.90
2018-11-07T17:02:51.051Z,5.97
2018-11-07T17:05:19.943Z,6.70
2018-11-07T17:07:48.691Z,7.20
2018-11-07T17:10:18.522Z,6.10
2018-11-07T17:12:46.904Z,5.57
2018-11-07T17:15:15.304Z,5.47
2018-11-07T17:17:43.642Z,5.80
2018-11-07T17:20:13.287Z,5.93
2018-11-07T17:22:42.024Z,7.30
2018-11-07T17:25:12.954Z,5.57
2018-11-07T17:27:41.755Z,6.57
2018-11-07T17:30:11.207Z,6.73
2018-11-07T17:32:39.778Z,5.77
2018-11-07T17:35:09.990Z,6.07
2018-11-07T17:37:38.371Z,5.87
2018-11-07T17:40:10.315Z,6.23
2018-11-07T17:42:38.886Z,5.70
2018-11-07T17:45:10.091Z,5.43
2018-11-07T17:47:38.838Z,6.20
2018-11-07T17:50:08.174Z,5.20
2018-11-07T17:52:37.566Z,5.73
2018-11-07T17:55:06.770Z,6.67
2018-11-07T17:57:35.107Z,7.50
2018-11-07T18:00:03.539Z,7.70
2018-11-07T18:02:32.499Z,8.00
2018-11-07T18:05:00.978Z,6.77
2018-11-07T18:07:29.366Z,8.40
2018-11-07T18:09:57.781Z,7.73
2018-11-07T18:12:26.418Z,7.83
2018-11-07T18:14:54.826Z,8.00
2018-11-07T18:17:23.582Z,7.23
2018-11-07T18:19:52.441Z,7.83
2018-11-07T18:22:20.735Z,9.20
2018-11-07T18:24:49.330Z,8.60
2018-11-07T18:27:17.739Z,8.23
2018-11-07T18:29:46.276Z,9.20
2018-11-07T18:32:14.715Z,9.87
2018-11-07T18:34:43.067Z,9.43
2018-11-07T18:37:11.435Z,9.73
2018-11-07T18:39:40.122Z,9.70
2018-11-07T18:42:08.419Z,10.40
2018-11-07T18:44:36.752Z,12.77
2018-11-07T18:47:05.483Z,13.43
2018-11-07T18:49:33.900Z,14.83
2018-11-07T18:52:02.314Z,11.13
2018-11-07T18:54:30.725Z,9.90
2018-11-07T18:56:59.138Z,9.40
2018-11-07T18:59:28.290Z,8.20
2018-11-07T19:01:56.703Z,7.57
2018-11-07T19:04:25.238Z,7.00
2018-11-07T19:06:53.609Z,6.43
2018-11-07T19:09:21.927Z,5.80
2018-11-07T19:11:50.212Z,5.87
2018-11-07T19:14:18.734Z,6.70
2018-11-07T19:16:47.388Z,6.90
2018-11-07T19:19:15.686Z,6.97
2018-11-07T19:21:44.098Z,6.80
2018-11-07T19:24:12.498Z,7.53
2018-11-07T19:26:41.095Z,7.40
2018-11-07T19:29:09.421Z,8.53
2018-11-07T19:31:37.838Z,8.33
2018-11-07T19:34:06.983Z,8.50
2018-11-07T19:36:35.487Z,9.40
2018-11-07T19:39:06.685Z,9.87
2018-11-07T19:41:34.985Z,9.40
2018-11-07T19:44:03.390Z,10.30
2018-11-07T19:46:31.802Z,9.37
2018-11-07T19:49:00.138Z,9.13
2018-11-07T19:51:29.213Z,9.07
2018-11-07T19:53:57.739Z,8.67
2018-11-07T19:56:26.587Z,9.23
2018-11-07T19:58:55.266Z,17.83
2018-11-07T20:01:23.702Z,35.37
2018-11-07T20:03:52.074Z,53.37
2018-11-07T20:06:20.522Z,39.53
2018-11-07T20:08:48.937Z,29.47
2018-11-07T20:11:17.354Z,14.50
2018-11-07T20:13:45.865Z,11.53
2018-11-07T20:16:15.593Z,18.60
2018-11-07T20:18:43.958Z,15.70
2018-11-07T20:21:12.350Z,14.27
2018-11-07T20:23:40.752Z,39.53
2018-11-07T20:26:09.042Z,65.70
2018-11-07T20:28:37.435Z,79.97
2018-11-07T20:31:06.182Z,15.37
2018-11-07T20:33:34.566Z,9.60
2018-11-07T20:36:03.600Z,9.23
2018-11-07T20:38:32.219Z,9.53
2018-11-07T20:41:00.518Z,9.20
2018-11-07T20:43:28.934Z,10.03
2018-11-07T20:45:57.308Z,9.60
2018-11-07T20:48:26.234Z,9.37
2018-11-07T20:50:54.528Z,10.33
2018-11-07T20:53:23.610Z,9.97
2018-11-07T20:55:51.998Z,10.03
2018-11-07T20:58:20.462Z,10.50
2018-11-07T21:00:48.801Z,10.00
2018-11-07T21:03:17.245Z,8.50
2018-11-07T21:05:45.575Z,9.83
2018-11-07T21:08:13.928Z,10.70
2018-11-07T21:10:42.238Z,14.17
2018-11-07T21:13:10.526Z,15.00
2018-11-07T21:15:38.869Z,13.00
2018-11-07T21:18:07.282Z,12.30
2018-11-07T21:20:35.759Z,15.40
2018-11-07T21:23:04.062Z,58.87
2018-11-07T21:25:32.419Z,49.47
2018-11-07T21:28:00.823Z,16.03
2018-11-07T21:30:29.138Z,11.10
2018-11-07T21:32:57.459Z,10.30
2018-11-07T21:35:27.181Z,9.20
2018-11-07T21:37:55.568Z,10.40
2018-11-07T21:40:23.929Z,10.47
2018-11-07T21:42:52.673Z,9.23
2018-11-07T21:45:21.019Z,9.33
2018-11-07T21:47:49.384Z,9.00
2018-11-07T21:50:17.974Z,9.63
2018-11-07T21:52:46.572Z,9.33
2018-11-07T21:55:15.014Z,8.80
2018-11-07T21:57:43.804Z,9.33
2018-11-07T22:00:14.757Z,9.07
2018-11-07T22:02:43.487Z,8.80
2018-11-07T22:05:12.609Z,8.90
2018-11-07T22:07:41.197Z,8.87
2018-11-07T22:10:10.657Z,9.40
2018-11-07T22:12:39.220Z,9.37
2018-11-07T22:15:08.335Z,8.90
2018-11-07T22:17:36.738Z,8.80
2018-11-07T22:20:07.963Z,9.37
2018-11-07T22:22:36.297Z,9.30
2018-11-07T22:25:04.841Z,8.70
2018-11-07T22:27:33.129Z,8.97
2018-11-07T22:30:01.545Z,8.27
2018-11-07T22:32:29.843Z,8.97
2018-11-07T22:34:58.117Z,8.93
2018-11-07T22:37:26.769Z,8.53
2018-11-07T22:39:56.645Z,10.20
2018-11-07T22:42:24.925Z,9.10
2018-11-07T22:44:53.437Z,8.67
2018-11-07T22:47:21.825Z,6.90
2018-11-07T22:49:50.129Z,5.70
2018-11-07T22:52:18.521Z,8.10
2018-11-07T22:54:46.861Z,6.80
2018-11-07T22:57:15.157Z,8.83
2018-11-07T22:59:43.474Z,7.80
2018-11-07T23:02:11.879Z,6.80
2018-11-07T23:04:40.254Z,7.37
2018-11-07T23:07:08.630Z,7.10
2018-11-07T23:09:36.898Z,7.23
2018-11-07T23:12:05.633Z,7.63
2018-11-07T23:14:33.934Z,8.03
2018-11-07T23:17:02.458Z,8.80
2018-11-07T23:19:30.917Z,10.03
2018-11-07T23:21:59.418Z,8.00
2018-11-07T23:24:27.793Z,7.27
2018-11-07T23:26:56.147Z,6.73
2018-11-07T23:29:24.476Z,9.03
2018-11-07T23:31:52.826Z,7.43
2018-11-07T23:34:21.814Z,7.13
2018-11-07T23:36:50.129Z,7.60
2018-11-07T23:39:18.420Z,7.30
2018-11-07T23:41:46.682Z,6.77
2018-11-07T23:44:15.558Z,7.60
2018-11-07T23:46:43.955Z,7.00
2018-11-07T23:49:12.285Z,7.87
2018-11-07T23:51:45.976Z,8.13
2018-11-07T23:54:14.379Z,8.43
2018-11-07T23:56:42.749Z,8.80
2018-11-07T23:59:11.167Z,7.67
